createdAt,value
2022-12-01T00:01:17.899Z,6.10
2022-12-01T00:03:44.806Z,6.00
2022-12-01T00:06:16.944Z,6.00
2022-12-01T00:09:04.718Z,6.00
2022-12-01T00:11:31.984Z,6.10
2022-12-01T00:14:01.529Z,6.10
2022-12-01T00:16:28.660Z,6.00
2022-12-01T00:18:55.760Z,6.10
2022-12-01T00:21:23.933Z,6.10
2022-12-01T00:23:52.953Z,6.10
2022-12-01T00:26:24.860Z,6.10
2022-12-01T00:28:55.140Z,6.10
2022-12-01T00:31:22.157Z,6.10
2022-12-01T00:33:49.087Z,6.10
2022-12-01T00:36:16.097Z,6.10
2022-12-01T00:38:42.991Z,6.10
2022-12-01T00:41:09.887Z,6.10
2022-12-01T00:43:36.793Z,6.10
2022-12-01T00:46:03.798Z,6.10
2022-12-01T00:50:57.753Z,6.10
2022-12-01T00:53:24.825Z,6.10
2022-12-01T00:55:54.070Z,6.10
2022-12-01T00:58:21.756Z,6.10
2022-12-01T01:00:48.863Z,6.20
2022-12-01T01:03:15.783Z,6.10
2022-12-01T01:05:44.046Z,6.10
2022-12-01T01:08:12.634Z,6.10
2022-12-01T01:10:41.011Z,6.10
2022-12-01T01:13:11.565Z,6.10
2022-12-01T01:15:38.683Z,6.10
2022-12-01T01:18:06.165Z,6.10
2022-12-01T01:20:33.416Z,6.10
2022-12-01T01:23:00.303Z,6.10
2022-12-01T01:25:27.244Z,6.00
2022-12-01T01:27:55.245Z,6.00
2022-12-01T01:30:22.173Z,6.10
2022-12-01T01:32:50.197Z,6.10
2022-12-01T01:35:19.064Z,6.10
2022-12-01T01:37:45.971Z,6.00
2022-12-01T01:40:12.866Z,6.10
2022-12-01T01:42:39.834Z,6.10
2022-12-01T01:45:25.211Z,6.10
2022-12-01T01:47:53.250Z,6.00
2022-12-01T01:50:23.099Z,6.00
2022-12-01T01:52:59.545Z,6.00
2022-12-01T01:55:26.467Z,6.00
2022-12-01T01:57:53.377Z,6.10
2022-12-01T02:00:20.828Z,6.10
2022-12-01T02:03:01.421Z,6.10
2022-12-01T02:05:32.657Z,6.10
2022-12-01T02:08:00.512Z,6.00
2022-12-01T02:10:34.317Z,6.00
2022-12-01T02:13:28.039Z,6.00
2022-12-01T02:16:15.090Z,5.90
2022-12-01T02:18:45.979Z,5.90
2022-12-01T02:22:03.132Z,5.90
2022-12-01T02:25:07.468Z,6.00
2022-12-01T02:27:54.972Z,6.00
2022-12-01T02:30:39.214Z,5.90
2022-12-01T02:33:12.243Z,5.90
2022-12-01T02:35:47.425Z,5.90
2022-12-01T02:38:20.412Z,6.00
2022-12-01T02:40:52.700Z,6.00
2022-12-01T02:44:04.871Z,6.00
2022-12-01T02:46:44.693Z,6.00
2022-12-01T02:49:16.680Z,5.90
2022-12-01T02:51:46.804Z,5.90
2022-12-01T02:54:14.513Z,6.00
2022-12-01T02:56:44.400Z,5.90
2022-12-01T02:59:12.038Z,5.90
2022-12-01T03:02:07.130Z,5.90
2022-12-01T03:04:51.675Z,5.90
2022-12-01T03:07:56.018Z,5.90
2022-12-01T03:10:45.463Z,5.90
2022-12-01T03:13:35.633Z,5.90
2022-12-01T03:16:34.880Z,6.00
2022-12-01T03:19:36.566Z,5.90
2022-12-01T03:22:20.037Z,5.90
2022-12-01T03:24:47.602Z,5.90
2022-12-01T03:27:15.218Z,5.80
2022-12-01T03:29:47.085Z,5.90
2022-12-01T03:32:17.930Z,5.80
2022-12-01T03:34:52.857Z,5.90
2022-12-01T03:37:25.230Z,5.90
2022-12-01T03:39:57.238Z,5.90
2022-12-01T03:42:34.405Z,5.90
2022-12-01T03:45:01.415Z,5.90
2022-12-01T03:47:31.071Z,5.90
2022-12-01T03:49:58.363Z,5.90
2022-12-01T03:52:58.636Z,5.80
2022-12-01T03:55:32.334Z,5.80
2022-12-01T03:58:05.373Z,5.80
2022-12-01T04:00:32.545Z,5.70
2022-12-01T04:03:03.253Z,5.70
2022-12-01T04:05:30.990Z,5.80
2022-12-01T04:07:58.191Z,5.80
2022-12-01T04:10:26.057Z,5.80
2022-12-01T04:12:58.998Z,5.80
2022-12-01T04:15:28.967Z,5.80
2022-12-01T04:17:58.879Z,5.80
2022-12-01T04:20:28.838Z,5.80
2022-12-01T04:22:58.769Z,5.70
2022-12-01T04:25:26.189Z,5.70
2022-12-01T04:27:53.129Z,5.80
2022-12-01T04:30:25.525Z,5.80
2022-12-01T04:32:52.409Z,5.70
2022-12-01T04:35:19.311Z,5.70
2022-12-01T04:37:46.246Z,5.70
2022-12-01T04:40:13.224Z,5.60
2022-12-01T04:42:40.099Z,5.70
2022-12-01T04:45:07.440Z,5.70
2022-12-01T04:47:34.443Z,5.70
2022-12-01T04:50:01.423Z,5.70
2022-12-01T04:52:33.618Z,5.70
2022-12-01T04:55:03.497Z,5.60
2022-12-01T04:57:30.434Z,5.70
2022-12-01T04:59:57.336Z,5.70
2022-12-01T05:02:26.501Z,5.70
2022-12-01T05:04:53.879Z,5.70
2022-12-01T05:07:20.845Z,5.70
2022-12-01T05:09:48.242Z,5.60
2022-12-01T05:12:17.257Z,5.60
2022-12-01T05:14:44.144Z,5.70
2022-12-01T05:17:11.084Z,5.70
2022-12-01T05:19:56.413Z,5.60
2022-12-01T05:22:56.939Z,5.60
2022-12-01T05:25:10.583Z,5.60
2022-12-01T05:27:37.491Z,5.70
2022-12-01T05:30:05.075Z,5.60
2022-12-01T05:32:31.964Z,5.70
2022-12-01T05:35:00.300Z,5.60
2022-12-01T05:37:28.381Z,5.60
2022-12-01T05:39:58.522Z,5.60
2022-12-01T05:42:28.307Z,5.60
2022-12-01T05:44:58.201Z,5.60
2022-12-01T05:47:25.689Z,5.60
2022-12-01T05:49:52.571Z,5.60
2022-12-01T05:52:28.639Z,5.60
2022-12-01T05:55:04.521Z,5.60
2022-12-01T05:57:32.106Z,5.50
2022-12-01T05:59:59.405Z,5.50
2022-12-01T06:02:27.127Z,5.50
2022-12-01T06:04:54.126Z,5.40
2022-12-01T06:07:22.454Z,5.40
2022-12-01T06:09:52.849Z,5.40
2022-12-01T06:12:20.226Z,5.40
2022-12-01T06:14:47.130Z,5.40
2022-12-01T06:17:14.026Z,5.30
2022-12-01T06:19:40.989Z,5.30
2022-12-01T06:22:07.976Z,5.30
2022-12-01T06:24:34.856Z,5.20
2022-12-01T06:27:01.734Z,5.30
2022-12-01T06:29:28.680Z,5.20
2022-12-01T06:31:56.109Z,5.20
2022-12-01T06:34:23.078Z,5.20
2022-12-01T06:36:50.282Z,5.20
2022-12-01T06:39:17.245Z,5.20
2022-12-01T06:41:44.195Z,5.30
2022-12-01T06:44:11.197Z,5.20
2022-12-01T06:46:38.226Z,5.30
2022-12-01T06:49:05.826Z,5.30
2022-12-01T06:51:34.427Z,5.30
2022-12-01T06:54:05.396Z,5.30
2022-12-01T06:56:32.760Z,5.30
2022-12-01T06:59:00.208Z,5.30
2022-12-01T07:01:27.536Z,5.30
2022-12-01T07:03:55.349Z,5.30
2022-12-01T07:06:22.310Z,5.30
2022-12-01T07:08:49.205Z,5.30
2022-12-01T07:11:16.385Z,5.30
2022-12-01T07:13:45.499Z,5.30
2022-12-01T07:16:12.844Z,5.40
2022-12-01T07:18:40.646Z,5.40
2022-12-01T07:21:17.015Z,5.40
2022-12-01T07:23:44.124Z,5.40
2022-12-01T07:26:14.482Z,5.40
2022-12-01T07:28:42.220Z,5.40
2022-12-01T07:31:19.129Z,5.40
2022-12-01T07:33:46.211Z,5.40
2022-12-01T07:36:14.292Z,5.40
2022-12-01T07:38:41.455Z,5.30
2022-12-01T07:41:12.015Z,5.30
2022-12-01T07:43:39.776Z,5.40
2022-12-01T07:46:17.227Z,5.40
2022-12-01T07:48:48.931Z,5.40
2022-12-01T07:51:16.888Z,5.50
2022-12-01T07:53:46.558Z,5.40
2022-12-01T07:56:13.980Z,5.40
2022-12-01T07:58:41.464Z,5.40
2022-12-01T08:01:17.754Z,5.40
2022-12-01T08:03:44.957Z,5.40
2022-12-01T08:06:12.306Z,5.50
2022-12-01T08:08:41.132Z,5.50
2022-12-01T08:11:17.664Z,5.50
2022-12-01T08:13:44.850Z,5.50
2022-12-01T08:16:15.459Z,5.40
2022-12-01T08:18:43.578Z,5.50
2022-12-01T08:21:15.392Z,5.50
2022-12-01T08:23:42.766Z,5.40
2022-12-01T08:26:15.786Z,5.50
2022-12-01T08:28:43.364Z,5.50
2022-12-01T08:31:17.206Z,5.50
2022-12-01T08:33:44.337Z,5.50
2022-12-01T08:36:11.391Z,5.50
2022-12-01T08:38:38.361Z,5.50
2022-12-01T08:41:08.654Z,5.50
2022-12-01T08:44:00.351Z,5.50
2022-12-01T08:46:33.312Z,5.50
2022-12-01T08:49:01.123Z,5.50
2022-12-01T08:51:28.303Z,5.60
2022-12-01T08:53:57.689Z,5.50
2022-12-01T08:56:33.360Z,5.50
2022-12-01T08:59:00.900Z,5.50
2022-12-01T09:01:28.192Z,5.50
2022-12-01T09:04:08.804Z,5.60
2022-12-01T09:06:43.129Z,5.60
2022-12-01T09:09:16.669Z,5.70
2022-12-01T09:11:44.332Z,5.80
2022-12-01T09:14:13.229Z,5.90
2022-12-01T09:16:41.594Z,6.00
2022-12-01T09:19:08.793Z,6.10
2022-12-01T09:21:39.916Z,6.10
2022-12-01T09:24:08.075Z,6.10
2022-12-01T09:26:35.037Z,6.30
2022-12-01T09:29:09.797Z,6.50
2022-12-01T09:31:38.129Z,6.50
2022-12-01T09:34:08.283Z,6.60
2022-12-01T09:36:36.144Z,6.50
2022-12-01T09:39:03.990Z,6.50
2022-12-01T09:41:44.297Z,6.50
2022-12-01T09:44:20.695Z,6.50
2022-12-01T09:46:53.911Z,6.50
2022-12-01T09:49:23.072Z,6.50
2022-12-01T09:51:52.931Z,6.40
2022-12-01T09:54:22.646Z,6.50
2022-12-01T09:56:53.556Z,6.50
2022-12-01T09:59:25.804Z,6.50
2022-12-01T10:01:59.483Z,6.60
2022-12-01T10:04:38.537Z,6.60
2022-12-01T10:07:13.947Z,6.50
2022-12-01T10:10:03.615Z,6.50
2022-12-01T10:12:33.179Z,6.50
2022-12-01T10:15:15.375Z,6.50
2022-12-01T10:17:42.152Z,6.40
2022-12-01T10:20:12.013Z,6.50
2022-12-01T10:23:07.408Z,6.50
2022-12-01T10:25:56.590Z,6.50
2022-12-01T10:28:49.294Z,6.60
2022-12-01T10:31:46.665Z,6.70
2022-12-01T10:34:21.235Z,6.70
2022-12-01T10:36:50.741Z,6.70
2022-12-01T10:39:34.845Z,6.70
2022-12-01T10:42:29.695Z,6.80
2022-12-01T10:45:01.017Z,6.80
2022-12-01T10:47:32.175Z,6.80
2022-12-01T10:49:59.137Z,6.90
2022-12-01T10:52:33.450Z,6.80
2022-12-01T10:55:00.778Z,6.80
2022-12-01T10:57:29.585Z,6.90
2022-12-01T11:00:07.134Z,6.90
2022-12-01T11:02:34.572Z,6.90
2022-12-01T11:05:04.818Z,6.90
2022-12-01T11:07:43.394Z,7.00
2022-12-01T11:10:35.673Z,7.10
2022-12-01T11:13:23.755Z,7.10
2022-12-01T11:15:58.289Z,7.00
2022-12-01T11:18:28.067Z,6.90
2022-12-01T11:21:15.289Z,6.90
2022-12-01T11:23:50.247Z,6.90
2022-12-01T11:26:25.850Z,6.90
2022-12-01T11:29:29.108Z,6.80
2022-12-01T11:31:56.175Z,6.70
2022-12-01T11:34:38.414Z,6.70
2022-12-01T11:37:09.238Z,6.70
2022-12-01T11:39:40.454Z,6.80
2022-12-01T11:42:19.062Z,6.90
2022-12-01T11:44:57.660Z,6.90
2022-12-01T11:47:26.557Z,6.80
2022-12-01T11:50:07.528Z,6.80
2022-12-01T11:52:39.376Z,6.80
2022-12-01T11:55:12.296Z,6.80
2022-12-01T11:57:43.531Z,6.80
2022-12-01T12:00:18.987Z,6.80
2022-12-01T12:03:01.033Z,6.90
2022-12-01T12:05:40.397Z,6.90
2022-12-01T12:08:20.844Z,7.00
2022-12-01T12:11:24.966Z,7.00
2022-12-01T12:14:01.194Z,7.00
2022-12-01T12:16:55.840Z,7.00
2022-12-01T12:20:06.139Z,6.90
2022-12-01T12:22:40.062Z,7.00
2022-12-01T12:25:30.693Z,7.00
2022-12-01T12:28:15.260Z,6.90
2022-12-01T12:31:24.518Z,6.90
2022-12-01T12:34:04.350Z,6.90
2022-12-01T12:36:55.999Z,6.90
2022-12-01T12:39:57.872Z,6.90
2022-12-01T12:42:33.865Z,6.90
2022-12-01T12:45:13.865Z,6.90
2022-12-01T12:48:22.406Z,6.90
2022-12-01T12:51:22.866Z,6.90
2022-12-01T12:53:53.417Z,6.90
2022-12-01T12:56:22.102Z,6.90
2022-12-01T12:59:12.005Z,6.90
2022-12-01T13:01:42.119Z,7.00
2022-12-01T13:04:23.194Z,6.90
2022-12-01T13:07:01.127Z,6.90
2022-12-01T13:09:45.824Z,7.00
2022-12-01T13:12:25.978Z,7.00
2022-12-01T13:15:01.451Z,7.00
2022-12-01T13:17:40.586Z,7.00
2022-12-01T13:20:12.413Z,7.00
2022-12-01T13:22:39.350Z,7.00
2022-12-01T13:25:07.204Z,6.90
2022-12-01T13:27:38.540Z,6.90
2022-12-01T13:30:06.087Z,6.90
2022-12-01T13:32:37.375Z,6.90
2022-12-01T13:35:34.182Z,6.90
2022-12-01T13:38:22.301Z,6.90
2022-12-01T13:40:49.315Z,6.90
2022-12-01T13:43:20.959Z,6.80
2022-12-01T13:45:50.916Z,6.90
2022-12-01T13:48:29.024Z,6.90
2022-12-01T13:50:58.201Z,6.90
2022-12-01T13:53:38.464Z,6.90
2022-12-01T13:56:17.590Z,6.80
2022-12-01T13:58:49.389Z,6.80
2022-12-01T14:01:22.894Z,6.80
2022-12-01T14:04:03.089Z,6.80
2022-12-01T14:06:35.992Z,6.80
2022-12-01T14:09:23.795Z,6.80
2022-12-01T14:12:05.057Z,6.80
2022-12-01T14:14:36.633Z,6.80
2022-12-01T14:17:03.864Z,6.80
2022-12-01T14:19:46.864Z,6.80
2022-12-01T14:22:33.540Z,6.80
2022-12-01T14:25:00.722Z,6.80
2022-12-01T14:27:39.179Z,6.80
2022-12-01T14:30:40.202Z,6.80
2022-12-01T14:33:44.939Z,6.80
2022-12-01T14:36:23.994Z,6.70
2022-12-01T14:38:57.002Z,6.70
2022-12-01T14:41:46.682Z,6.70
2022-12-01T14:44:29.865Z,6.60
2022-12-01T14:47:29.016Z,6.60
2022-12-01T14:50:03.490Z,6.60
2022-12-01T14:52:36.104Z,6.40
2022-12-01T14:55:26.437Z,6.40
2022-12-01T14:58:05.260Z,6.30
2022-12-01T15:00:33.431Z,6.30
2022-12-01T15:03:02.320Z,6.40
2022-12-01T15:05:32.714Z,6.30
2022-12-01T15:08:40.446Z,6.30
2022-12-01T15:11:06.430Z,6.30
2022-12-01T15:13:39.261Z,6.20
2022-12-01T15:16:17.254Z,6.30
2022-12-01T15:18:44.252Z,6.20
2022-12-01T15:21:20.165Z,6.10
2022-12-01T15:24:05.068Z,6.00
2022-12-01T15:26:36.444Z,6.00
2022-12-01T15:29:17.613Z,6.00
2022-12-01T15:31:46.972Z,6.00
2022-12-01T15:34:17.647Z,6.00
2022-12-01T15:36:44.689Z,5.90
2022-12-01T15:39:21.157Z,5.90
2022-12-01T15:41:49.009Z,5.90
2022-12-01T15:44:19.992Z,5.90
2022-12-01T15:46:47.067Z,5.80
2022-12-01T15:49:20.083Z,5.80
2022-12-01T15:51:48.469Z,5.80
2022-12-01T15:54:23.786Z,5.80
2022-12-01T15:56:54.996Z,5.80
2022-12-01T15:59:41.687Z,5.80
2022-12-01T16:02:20.784Z,5.80
2022-12-01T16:04:48.302Z,5.70
2022-12-01T16:07:15.537Z,5.70
2022-12-01T16:10:01.079Z,5.70
2022-12-01T16:12:32.344Z,5.70
2022-12-01T16:15:06.932Z,5.60
2022-12-01T16:17:47.942Z,5.60
2022-12-01T16:20:18.883Z,5.60
2022-12-01T16:22:47.193Z,5.50
2022-12-01T16:25:19.000Z,5.50
2022-12-01T16:27:51.509Z,5.40
2022-12-01T16:30:26.919Z,5.30
2022-12-01T16:33:01.489Z,5.30
2022-12-01T16:35:33.736Z,5.30
2022-12-01T16:38:04.899Z,5.30
2022-12-01T16:40:31.932Z,5.20
2022-12-01T16:43:01.406Z,5.10
2022-12-01T16:45:28.875Z,5.10
2022-12-01T16:47:55.984Z,5.10
2022-12-01T16:50:23.317Z,5.10
2022-12-01T16:52:53.443Z,5.10
2022-12-01T16:55:35.436Z,5.10
2022-12-01T16:58:02.433Z,5.00
2022-12-01T17:00:29.824Z,5.00
2022-12-01T17:02:57.309Z,5.00
2022-12-01T17:05:24.394Z,5.00
2022-12-01T17:07:51.520Z,4.90
2022-12-01T17:10:18.741Z,4.90
2022-12-01T17:12:45.773Z,4.90
2022-12-01T17:15:13.362Z,4.90
2022-12-01T17:17:40.309Z,4.80
2022-12-01T17:20:07.891Z,4.90
2022-12-01T17:22:34.972Z,4.80
2022-12-01T17:25:02.528Z,4.90
2022-12-01T17:27:29.767Z,4.80
2022-12-01T17:29:58.915Z,4.70
2022-12-01T17:32:26.607Z,4.70
2022-12-01T17:34:53.501Z,4.70
2022-12-01T17:37:21.285Z,4.70
2022-12-01T17:39:52.295Z,4.80
2022-12-01T17:42:19.512Z,4.80
2022-12-01T17:44:46.379Z,4.80
2022-12-01T17:47:13.543Z,4.90
2022-12-01T17:49:40.431Z,4.90
2022-12-01T17:52:08.297Z,4.90
2022-12-01T17:54:35.274Z,4.90
2022-12-01T17:57:02.182Z,4.90
2022-12-01T17:59:29.257Z,5.00
2022-12-01T18:01:56.243Z,4.90
2022-12-01T18:04:23.244Z,4.90
2022-12-01T18:06:53.952Z,4.90
2022-12-01T18:09:21.471Z,5.00
2022-12-01T18:11:51.685Z,4.90
2022-12-01T18:14:21.171Z,4.90
2022-12-01T18:16:48.686Z,4.90
2022-12-01T18:19:15.719Z,4.90
2022-12-01T18:21:42.764Z,5.00
2022-12-01T18:24:10.285Z,5.00
2022-12-01T18:26:39.821Z,5.00
2022-12-01T18:29:18.891Z,5.10
2022-12-01T18:31:47.278Z,5.00
2022-12-01T18:34:14.407Z,5.10
2022-12-01T18:36:41.691Z,5.00
2022-12-01T18:39:09.333Z,5.10
2022-12-01T18:41:36.649Z,5.10
2022-12-01T18:44:04.402Z,5.10
2022-12-01T18:46:31.391Z,5.10
2022-12-01T18:49:02.145Z,5.20
2022-12-01T18:51:34.413Z,5.10
2022-12-01T18:54:02.697Z,5.10
2022-12-01T18:56:29.658Z,5.10
2022-12-01T18:58:57.893Z,5.10
2022-12-01T19:01:33.246Z,5.10
2022-12-01T19:04:00.267Z,5.10
2022-12-01T19:06:27.718Z,5.10
2022-12-01T19:08:55.345Z,5.10
2022-12-01T19:11:22.244Z,5.10
2022-12-01T19:13:49.474Z,5.20
2022-12-01T19:16:18.656Z,5.10
2022-12-01T19:18:46.039Z,5.20
2022-12-01T19:21:14.578Z,5.10
2022-12-01T19:23:41.514Z,5.10
2022-12-01T19:26:11.152Z,5.20
2022-12-01T19:28:38.358Z,5.20
2022-12-01T19:31:06.650Z,5.20
2022-12-01T19:33:33.604Z,5.20
2022-12-01T19:36:11.157Z,5.20
2022-12-01T19:38:38.631Z,5.20
2022-12-01T19:41:06.219Z,5.30
2022-12-01T19:43:34.040Z,5.20
2022-12-01T19:46:14.871Z,5.20
2022-12-01T19:48:42.357Z,5.30
2022-12-01T19:51:17.676Z,5.30
2022-12-01T19:53:44.565Z,5.30
2022-12-01T19:56:11.489Z,5.30
2022-12-01T19:58:38.383Z,5.30
2022-12-01T20:01:09.976Z,5.30
2022-12-01T20:03:38.084Z,5.30
2022-12-01T20:06:13.191Z,5.30
2022-12-01T20:08:40.308Z,5.30
2022-12-01T20:11:07.595Z,5.30
2022-12-01T20:13:36.075Z,5.40
2022-12-01T20:16:04.889Z,5.30
2022-12-01T20:18:32.069Z,5.40
2022-12-01T20:21:17.185Z,5.30
2022-12-01T20:23:45.212Z,5.30
2022-12-01T20:26:12.576Z,5.30
2022-12-01T20:28:39.831Z,5.30
2022-12-01T20:31:11.963Z,5.30
2022-12-01T20:33:39.349Z,5.30
2022-12-01T20:36:07.005Z,5.30
2022-12-01T20:38:34.749Z,5.30
2022-12-01T20:41:01.651Z,5.30
2022-12-01T20:43:31.714Z,5.30
2022-12-01T20:45:59.188Z,5.30
2022-12-01T20:48:26.474Z,5.30
2022-12-01T20:50:53.495Z,5.30
2022-12-01T20:53:20.439Z,5.20
2022-12-01T20:55:47.405Z,5.30
2022-12-01T20:58:14.297Z,5.20
2022-12-01T21:00:45.888Z,5.20
2022-12-01T21:03:13.272Z,5.20
2022-12-01T21:05:41.590Z,5.10
2022-12-01T21:08:10.273Z,5.10
2022-12-01T21:10:43.848Z,5.10
2022-12-01T21:13:45.044Z,5.10
2022-12-01T21:16:22.498Z,5.10
2022-12-01T21:18:55.775Z,5.10
2022-12-01T21:21:25.889Z,5.10
2022-12-01T21:24:08.035Z,5.00
2022-12-01T21:26:38.965Z,5.00
2022-12-01T21:29:42.319Z,5.00
2022-12-01T21:32:16.515Z,5.00
2022-12-01T21:34:43.544Z,5.00
2022-12-01T21:37:20.472Z,5.10
2022-12-01T21:39:50.977Z,5.00
2022-12-01T21:42:24.929Z,5.10
2022-12-01T21:44:52.276Z,5.10
2022-12-01T21:47:26.913Z,5.10
2022-12-01T21:49:57.881Z,5.00
2022-12-01T21:52:39.648Z,5.10
2022-12-01T21:55:33.604Z,5.00
2022-12-01T21:58:00.505Z,5.00
2022-12-01T22:00:35.673Z,5.00
2022-12-01T22:03:08.567Z,5.10
2022-12-01T22:05:40.560Z,5.10
2022-12-01T22:08:13.493Z,5.10
2022-12-01T22:11:25.744Z,5.10
2022-12-01T22:14:42.091Z,5.00
2022-12-01T22:17:09.062Z,5.10
2022-12-01T22:19:38.544Z,5.10
2022-12-01T22:22:11.482Z,5.10
2022-12-01T22:24:48.512Z,5.00
2022-12-01T22:27:29.101Z,5.00
2022-12-01T22:30:17.379Z,5.10
2022-12-01T22:32:46.082Z,5.00
2022-12-01T22:35:23.067Z,5.00
2022-12-01T22:38:08.780Z,5.00
2022-12-01T22:40:47.666Z,5.10
2022-12-01T22:43:17.528Z,5.00
2022-12-01T22:45:50.355Z,5.00
2022-12-01T22:48:32.065Z,5.00
2022-12-01T22:51:26.036Z,5.00
2022-12-01T22:54:25.863Z,5.00
2022-12-01T22:57:07.875Z,5.00
2022-12-01T22:59:36.493Z,5.00
2022-12-01T23:02:21.180Z,5.00
2022-12-01T23:04:50.130Z,5.00
2022-12-01T23:07:33.389Z,5.00
2022-12-01T23:10:19.984Z,5.00
2022-12-01T23:12:51.292Z,5.00
2022-12-01T23:15:27.424Z,5.10
2022-12-01T23:17:54.650Z,5.10
2022-12-01T23:20:30.501Z,5.00
2022-12-01T23:22:59.272Z,5.00
2022-12-01T23:25:27.659Z,5.00
2022-12-01T23:27:56.151Z,5.00
2022-12-01T23:30:23.303Z,5.00
2022-12-01T23:33:02.434Z,5.00
2022-12-01T23:35:29.327Z,5.00
2022-12-01T23:37:56.226Z,5.00
2022-12-01T23:40:29.974Z,5.00
2022-12-01T23:43:11.413Z,5.10
2022-12-01T23:45:38.341Z,5.00
2022-12-01T23:48:10.809Z,5.10
2022-12-01T23:50:38.048Z,5.10
2022-12-01T23:53:04.923Z,5.10
2022-12-01T23:55:31.920Z,5.10
2022-12-01T23:57:59.020Z,5.00
